sensor_id;sensor_type;location;lat;lon;timestamp;pressure;altitude;pressure_sealevel;temperature;humidity
7730;BME280;3908;52.310;7.230;2023-03-03T00:02:37;51246.78;;;-145.83;100.00
7730;BME280;3908;52.310;7.230;2023-03-03T00:05:25;51233.06;;;-145.83;100.00
7730;BME280;3908;52.310;7.230;2023-03-03T00:08:12;51274.16;;;-145.83;100.00
7730;BME280;3908;52.310;7.230;2023-03-03T00:10:59;51238.94;;;-145.83;100.00
7730;BME280;3908;52.310;7.230;2023-03-03T00:13:49;51244.81;;;-145.83;100.00
7730;BME280;3908;52.310;7.230;2023-03-03T00:16:37;51252.66;;;-145.83;100.00
7730;BME280;3908;52.310;7.230;2023-03-03T00:19:25;51264.38;;;-145.83;100.00
7730;BME280;3908;52.310;7.230;2023-03-03T00:22:21;51250.69;;;-145.83;100.00
7730;BME280;3908;52.310;7.230;2023-03-03T00:25:27;51252.66;;;-145.83;100.00
7730;BME280;3908;52.310;7.230;2023-03-03T00:28:22;51246.78;;;-145.83;100.00
7730;BME280;3908;52.310;7.230;2023-03-03T00:31:15;51252.66;;;-145.83;100.00
7730;BME280;3908;52.310;7.230;2023-03-03T00:34:18;51252.66;;;-145.83;100.00
7730;BME280;3908;52.310;7.230;2023-03-03T00:37:29;51252.66;;;-145.83;100.00
7730;BME280;3908;52.310;7.230;2023-03-03T00:40:22;51244.81;;;-145.83;100.00
7730;BME280;3908;52.310;7.230;2023-03-03T00:43:18;51268.28;;;-145.83;100.00
7730;BME280;3908;52.310;7.230;2023-03-03T00:46:07;51264.38;;;-145.83;100.00
7730;BME280;3908;52.310;7.230;2023-03-03T00:48:55;51256.56;;;-145.83;100.00
7730;BME280;3908;52.310;7.230;2023-03-03T00:51:42;51272.22;;;-145.83;100.00
7730;BME280;3908;52.310;7.230;2023-03-03T00:54:31;51276.13;;;-145.83;100.00
7730;BME280;3908;52.310;7.230;2023-03-03T00:57:18;51254.59;;;-145.83;100.00
7730;BME280;3908;52.310;7.230;2023-03-03T01:00:06;51258.50;;;-145.83;100.00
7730;BME280;3908;52.310;7.230;2023-03-03T01:02:53;51240.91;;;-145.83;100.00
7730;BME280;3908;52.310;7.230;2023-03-03T01:05:40;51270.25;;;-145.83;100.00
7730;BME280;3908;52.310;7.230;2023-03-03T01:08:27;51264.38;;;-145.83;100.00
7730;BME280;3908;52.310;7.230;2023-03-03T01:11:19;51280.03;;;-145.83;100.00
7730;BME280;3908;52.310;7.230;2023-03-03T01:14:07;51256.56;;;-145.83;100.00
7730;BME280;3908;52.310;7.230;2023-03-03T01:16:54;51283.94;;;-145.83;100.00
7730;BME280;3908;52.310;7.230;2023-03-03T01:19:41;51274.16;;;-145.83;100.00
7730;BME280;3908;52.310;7.230;2023-03-03T01:22:28;51264.38;;;-145.83;100.00
7730;BME280;3908;52.310;7.230;2023-03-03T01:25:15;51295.69;;;-145.83;100.00
7730;BME280;3908;52.310;7.230;2023-03-03T01:28:04;51250.69;;;-145.83;100.00
7730;BME280;3908;52.310;7.230;2023-03-03T01:30:51;51264.38;;;-145.83;100.00
7730;BME280;3908;52.310;7.230;2023-03-03T01:33:38;51238.94;;;-145.83;100.00
7730;BME280;3908;52.310;7.230;2023-03-03T01:36:27;51250.69;;;-145.83;100.00
7730;BME280;3908;52.310;7.230;2023-03-03T01:39:14;51260.47;;;-145.83;100.00
7730;BME280;3908;52.310;7.230;2023-03-03T01:42:03;51258.50;;;-145.83;100.00
7730;BME280;3908;52.310;7.230;2023-03-03T01:45:17;51266.34;;;-145.83;100.00
7730;BME280;3908;52.310;7.230;2023-03-03T01:48:06;51291.75;;;-145.83;100.00
7730;BME280;3908;52.310;7.230;2023-03-03T01:51:00;51274.16;;;-145.83;100.00
7730;BME280;3908;52.310;7.230;2023-03-03T01:53:51;51238.94;;;-145.83;100.00
7730;BME280;3908;52.310;7.230;2023-03-03T01:56:40;51231.13;;;-145.83;100.00
7730;BME280;3908;52.310;7.230;2023-03-03T01:59:30;51285.91;;;-145.83;100.00
7730;BME280;3908;52.310;7.230;2023-03-03T02:02:22;51264.38;;;-145.83;100.00
7730;BME280;3908;52.310;7.230;2023-03-03T02:05:10;51252.66;;;-145.83;100.00
7730;BME280;3908;52.310;7.230;2023-03-03T02:07:57;51281.97;;;-145.83;100.00
7730;BME280;3908;52.310;7.230;2023-03-03T02:10:45;51280.03;;;-145.83;100.00
7730;BME280;3908;52.310;7.230;2023-03-03T02:13:32;51254.59;;;-145.83;100.00
7730;BME280;3908;52.310;7.230;2023-03-03T02:16:19;51264.38;;;-145.83;100.00
7730;BME280;3908;52.310;7.230;2023-03-03T02:19:12;51248.72;;;-145.83;100.00
7730;BME280;3908;52.310;7.230;2023-03-03T02:22:03;51256.56;;;-145.83;100.00
7730;BME280;3908;52.310;7.230;2023-03-03T02:24:51;51242.84;;;-145.83;100.00
7730;BME280;3908;52.310;7.230;2023-03-03T02:27:41;51276.13;;;-145.83;100.00
7730;BME280;3908;52.310;7.230;2023-03-03T02:30:29;51258.50;;;-145.83;100.00
7730;BME280;3908;52.310;7.230;2023-03-03T02:33:16;51272.22;;;-145.83;100.00
7730;BME280;3908;52.310;7.230;2023-03-03T02:36:03;51289.81;;;-145.83;100.00
7730;BME280;3908;52.310;7.230;2023-03-03T02:38:54;51280.03;;;-145.83;100.00
7730;BME280;3908;52.310;7.230;2023-03-03T02:41:49;51270.25;;;-145.83;100.00
7730;BME280;3908;52.310;7.230;2023-03-03T02:44:39;51278.06;;;-145.83;100.00
7730;BME280;3908;52.310;7.230;2023-03-03T02:47:26;51264.38;;;-145.83;100.00
7730;BME280;3908;52.310;7.230;2023-03-03T02:50:13;51262.44;;;-145.83;100.00
7730;BME280;3908;52.310;7.230;2023-03-03T02:53:00;51225.25;;;-145.83;100.00
7730;BME280;3908;52.310;7.230;2023-03-03T02:55:47;51264.38;;;-145.83;100.00
7730;BME280;3908;52.310;7.230;2023-03-03T02:58:34;51260.47;;;-145.83;100.00
7730;BME280;3908;52.310;7.230;2023-03-03T03:01:22;51256.56;;;-145.83;100.00
7730;BME280;3908;52.310;7.230;2023-03-03T03:04:11;51246.78;;;-145.83;100.00
7730;BME280;3908;52.310;7.230;2023-03-03T03:06:59;51264.38;;;-145.83;100.00
7730;BME280;3908;52.310;7.230;2023-03-03T03:09:46;51287.84;;;-145.83;100.00
7730;BME280;3908;52.310;7.230;2023-03-03T03:12:34;51272.22;;;-145.83;100.00
7730;BME280;3908;52.310;7.230;2023-03-03T03:15:21;51262.44;;;-145.83;100.00
7730;BME280;3908;52.310;7.230;2023-03-03T03:18:09;51283.94;;;-145.83;100.00
7730;BME280;3908;52.310;7.230;2023-03-03T03:20:56;51244.81;;;-145.83;100.00
7730;BME280;3908;52.310;7.230;2023-03-03T03:23:43;51237.00;;;-145.83;100.00
7730;BME280;3908;52.310;7.230;2023-03-03T03:26:31;51256.56;;;-145.83;100.00
7730;BME280;3908;52.310;7.230;2023-03-03T03:29:18;51244.81;;;-145.83;100.00
7730;BME280;3908;52.310;7.230;2023-03-03T03:32:05;51276.13;;;-145.83;100.00
7730;BME280;3908;52.310;7.230;2023-03-03T03:34:53;51274.16;;;-145.83;100.00
7730;BME280;3908;52.310;7.230;2023-03-03T03:37:40;51276.13;;;-145.83;100.00
7730;BME280;3908;52.310;7.230;2023-03-03T03:40:27;51285.91;;;-145.83;100.00
7730;BME280;3908;52.310;7.230;2023-03-03T03:43:14;51283.94;;;-145.83;100.00
7730;BME280;3908;52.310;7.230;2023-03-03T03:46:01;51274.16;;;-145.83;100.00
7730;BME280;3908;52.310;7.230;2023-03-03T03:48:48;51287.84;;;-145.83;100.00
7730;BME280;3908;52.310;7.230;2023-03-03T03:51:37;51242.84;;;-145.83;100.00
7730;BME280;3908;52.310;7.230;2023-03-03T03:54:25;51264.38;;;-145.83;100.00
7730;BME280;3908;52.310;7.230;2023-03-03T03:57:12;51270.25;;;-145.83;100.00
7730;BME280;3908;52.310;7.230;2023-03-03T03:59:59;51272.22;;;-145.83;100.00
7730;BME280;3908;52.310;7.230;2023-03-03T04:02:53;51272.22;;;-145.83;100.00
7730;BME280;3908;52.310;7.230;2023-03-03T04:05:41;51246.78;;;-145.83;100.00
7730;BME280;3908;52.310;7.230;2023-03-03T04:08:29;51291.75;;;-145.83;100.00
7730;BME280;3908;52.310;7.230;2023-03-03T04:11:16;51272.22;;;-145.83;100.00
7730;BME280;3908;52.310;7.230;2023-03-03T04:14:03;51280.03;;;-145.83;100.00
7730;BME280;3908;52.310;7.230;2023-03-03T04:16:50;51270.25;;;-145.83;100.00
7730;BME280;3908;52.310;7.230;2023-03-03T04:19:37;51283.94;;;-145.83;100.00
7730;BME280;3908;52.310;7.230;2023-03-03T04:22:24;51285.91;;;-145.83;100.00
7730;BME280;3908;52.310;7.230;2023-03-03T04:25:14;51244.81;;;-145.83;100.00
7730;BME280;3908;52.310;7.230;2023-03-03T04:28:02;51274.16;;;-145.83;100.00
7730;BME280;3908;52.310;7.230;2023-03-03T04:30:49;51242.84;;;-145.83;100.00
7730;BME280;3908;52.310;7.230;2023-03-03T04:33:36;51299.59;;;-145.83;100.00
7730;BME280;3908;52.310;7.230;2023-03-03T04:36:23;51268.28;;;-145.83;100.00
7730;BME280;3908;52.310;7.230;2023-03-03T04:39:11;51287.84;;;-145.83;100.00
7730;BME280;3908;52.310;7.230;2023-03-03T04:41:59;51242.84;;;-145.83;100.00
7730;BME280;3908;52.310;7.230;2023-03-03T04:44:46;51276.13;;;-145.83;100.00
7730;BME280;3908;52.310;7.230;2023-03-03T04:47:33;51266.34;;;-145.83;100.00
7730;BME280;3908;52.310;7.230;2023-03-03T04:50:20;51262.44;;;-145.83;100.00
7730;BME280;3908;52.310;7.230;2023-03-03T04:53:07;51266.34;;;-145.83;100.00
7730;BME280;3908;52.310;7.230;2023-03-03T04:55:54;51272.22;;;-145.83;100.00
7730;BME280;3908;52.310;7.230;2023-03-03T04:58:42;51248.72;;;-145.83;100.00
7730;BME280;3908;52.310;7.230;2023-03-03T05:01:29;51266.34;;;-145.83;100.00
7730;BME280;3908;52.310;7.230;2023-03-03T05:04:16;51260.47;;;-145.83;100.00
7730;BME280;3908;52.310;7.230;2023-03-03T05:07:03;51248.72;;;-145.83;100.00
7730;BME280;3908;52.310;7.230;2023-03-03T05:09:50;51281.97;;;-145.83;100.00
7730;BME280;3908;52.310;7.230;2023-03-03T05:12:37;51250.69;;;-145.83;100.00
7730;BME280;3908;52.310;7.230;2023-03-03T05:15:26;51285.91;;;-145.83;100.00
7730;BME280;3908;52.310;7.230;2023-03-03T05:18:13;51238.94;;;-145.83;100.00
7730;BME280;3908;52.310;7.230;2023-03-03T05:21:00;51270.25;;;-145.83;100.00
7730;BME280;3908;52.310;7.230;2023-03-03T05:23:47;51319.16;;;-145.83;100.00
7730;BME280;3908;52.310;7.230;2023-03-03T05:26:34;51278.06;;;-145.83;100.00
7730;BME280;3908;52.310;7.230;2023-03-03T05:29:21;51235.03;;;-145.83;100.00
7730;BME280;3908;52.310;7.230;2023-03-03T05:32:09;51244.81;;;-145.83;100.00
7730;BME280;3908;52.310;7.230;2023-03-03T05:34:56;51250.69;;;-145.83;100.00
7730;BME280;3908;52.310;7.230;2023-03-03T05:37:43;51297.63;;;-145.83;100.00
7730;BME280;3908;52.310;7.230;2023-03-03T05:40:32;51260.47;;;-145.83;100.00
7730;BME280;3908;52.310;7.230;2023-03-03T05:43:19;51289.81;;;-145.83;100.00
7730;BME280;3908;52.310;7.230;2023-03-03T05:46:06;51295.69;;;-145.83;100.00
7730;BME280;3908;52.310;7.230;2023-03-03T05:48:54;51248.72;;;-145.83;100.00
7730;BME280;3908;52.310;7.230;2023-03-03T05:51:41;51283.94;;;-145.83;100.00
7730;BME280;3908;52.310;7.230;2023-03-03T05:54:28;51225.25;;;-145.83;100.00
7730;BME280;3908;52.310;7.230;2023-03-03T05:57:15;51262.44;;;-145.83;100.00
7730;BME280;3908;52.310;7.230;2023-03-03T06:00:03;51285.91;;;-145.83;100.00
7730;BME280;3908;52.310;7.230;2023-03-03T06:02:51;51252.66;;;-145.83;100.00
7730;BME280;3908;52.310;7.230;2023-03-03T06:05:39;51256.56;;;-145.83;100.00
7730;BME280;3908;52.310;7.230;2023-03-03T06:08:26;51266.34;;;-145.83;100.00
7730;BME280;3908;52.310;7.230;2023-03-03T06:11:14;51291.75;;;-145.83;100.00
7730;BME280;3908;52.310;7.230;2023-03-03T06:14:01;51254.59;;;-145.83;100.00
7730;BME280;3908;52.310;7.230;2023-03-03T06:16:48;51248.72;;;-145.83;100.00
7730;BME280;3908;52.310;7.230;2023-03-03T06:19:36;51258.50;;;-145.83;100.00
7730;BME280;3908;52.310;7.230;2023-03-03T06:22:24;51250.69;;;-145.83;100.00
7730;BME280;3908;52.310;7.230;2023-03-03T06:25:11;51278.06;;;-145.83;100.00
7730;BME280;3908;52.310;7.230;2023-03-03T06:27:58;51244.81;;;-145.83;100.00
7730;BME280;3908;52.310;7.230;2023-03-03T06:30:45;51289.81;;;-145.83;100.00
7730;BME280;3908;52.310;7.230;2023-03-03T06:33:33;51237.00;;;-145.83;100.00
7730;BME280;3908;52.310;7.230;2023-03-03T06:36:20;51238.94;;;-145.83;100.00
7730;BME280;3908;52.310;7.230;2023-03-03T06:39:09;51270.25;;;-145.83;100.00
7730;BME280;3908;52.310;7.230;2023-03-03T06:41:56;51268.28;;;-145.83;100.00
7730;BME280;3908;52.310;7.230;2023-03-03T06:44:43;51301.53;;;-145.83;100.00
7730;BME280;3908;52.310;7.230;2023-03-03T06:47:30;51276.13;;;-145.83;100.00
7730;BME280;3908;52.310;7.230;2023-03-03T06:50:20;51293.72;;;-145.83;100.00
7730;BME280;3908;52.310;7.230;2023-03-03T06:53:11;51280.03;;;-145.83;100.00
7730;BME280;3908;52.310;7.230;2023-03-03T06:56:04;51254.59;;;-145.83;100.00
7730;BME280;3908;52.310;7.230;2023-03-03T06:58:57;51242.84;;;-145.83;100.00
7730;BME280;3908;52.310;7.230;2023-03-03T07:01:46;51281.97;;;-145.83;100.00
7730;BME280;3908;52.310;7.230;2023-03-03T07:04:33;51281.97;;;-145.83;100.00
7730;BME280;3908;52.310;7.230;2023-03-03T07:07:22;51281.97;;;-145.83;100.00
7730;BME280;3908;52.310;7.230;2023-03-03T07:10:22;51258.50;;;-145.83;100.00
7730;BME280;3908;52.310;7.230;2023-03-03T07:13:28;51248.72;;;-145.83;100.00
7730;BME280;3908;52.310;7.230;2023-03-03T07:16:16;51262.44;;;-145.83;100.00
7730;BME280;3908;52.310;7.230;2023-03-03T07:19:08;51262.44;;;-145.83;100.00
7730;BME280;3908;52.310;7.230;2023-03-03T07:22:00;51252.66;;;-145.83;100.00
7730;BME280;3908;52.310;7.230;2023-03-03T07:24:58;51262.44;;;-145.83;100.00
7730;BME280;3908;52.310;7.230;2023-03-03T07:27:47;51242.84;;;-145.83;100.00
7730;BME280;3908;52.310;7.230;2023-03-03T07:30:36;51270.25;;;-145.83;100.00
7730;BME280;3908;52.310;7.230;2023-03-03T07:33:26;51311.31;;;-145.83;100.00
7730;BME280;3908;52.310;7.230;2023-03-03T07:36:25;51238.94;;;-145.83;100.00
7730;BME280;3908;52.310;7.230;2023-03-03T07:39:24;51260.47;;;-145.83;100.00
7730;BME280;3908;52.310;7.230;2023-03-03T07:42:21;51281.97;;;-145.83;100.00
7730;BME280;3908;52.310;7.230;2023-03-03T07:45:23;51260.47;;;-145.83;100.00
7730;BME280;3908;52.310;7.230;2023-03-03T07:48:21;51252.66;;;-145.83;100.00
7730;BME280;3908;52.310;7.230;2023-03-03T07:51:19;51242.84;;;-145.83;100.00
7730;BME280;3908;52.310;7.230;2023-03-03T07:54:28;51274.16;;;-145.83;100.00
7730;BME280;3908;52.310;7.230;2023-03-03T07:57:21;51260.47;;;-145.83;100.00
7730;BME280;3908;52.310;7.230;2023-03-03T08:03:33;51287.84;;;-145.83;100.00
7730;BME280;3908;52.310;7.230;2023-03-03T08:06:43;51272.22;;;-145.83;100.00
7730;BME280;3908;52.310;7.230;2023-03-03T08:09:45;51281.97;;;-145.83;100.00
7730;BME280;3908;52.310;7.230;2023-03-03T08:12:39;51287.84;;;-145.83;100.00
7730;BME280;3908;52.310;7.230;2023-03-03T08:15:30;51274.16;;;-145.83;100.00
7730;BME280;3908;52.310;7.230;2023-03-03T08:18:23;51254.59;;;-145.83;100.00
7730;BME280;3908;52.310;7.230;2023-03-03T08:21:14;51248.72;;;-145.83;100.00
7730;BME280;3908;52.310;7.230;2023-03-03T08:24:03;51276.13;;;-145.83;100.00
7730;BME280;3908;52.310;7.230;2023-03-03T08:26:50;51305.47;;;-145.83;100.00
7730;BME280;3908;52.310;7.230;2023-03-03T08:29:37;51276.13;;;-145.83;100.00
7730;BME280;3908;52.310;7.230;2023-03-03T08:32:24;51252.66;;;-145.83;100.00
7730;BME280;3908;52.310;7.230;2023-03-03T08:35:11;51266.34;;;-145.83;100.00
7730;BME280;3908;52.310;7.230;2023-03-03T08:38:00;51266.34;;;-145.83;100.00
7730;BME280;3908;52.310;7.230;2023-03-03T08:40:49;51301.53;;;-145.83;100.00
7730;BME280;3908;52.310;7.230;2023-03-03T08:43:36;51301.53;;;-145.83;100.00
7730;BME280;3908;52.310;7.230;2023-03-03T08:46:23;51311.31;;;-145.83;100.00
7730;BME280;3908;52.310;7.230;2023-03-03T08:49:11;51281.97;;;-145.83;100.00
7730;BME280;3908;52.310;7.230;2023-03-03T08:51:58;51305.47;;;-145.83;100.00
7730;BME280;3908;52.310;7.230;2023-03-03T08:54:48;51309.38;;;-145.83;100.00
7730;BME280;3908;52.310;7.230;2023-03-03T08:57:35;51285.91;;;-145.83;100.00
7730;BME280;3908;52.310;7.230;2023-03-03T09:00:23;51280.03;;;-145.83;100.00
7730;BME280;3908;52.310;7.230;2023-03-03T09:03:11;51325.03;;;-145.83;100.00
7730;BME280;3908;52.310;7.230;2023-03-03T09:05:58;51285.91;;;-145.83;100.00
7730;BME280;3908;52.310;7.230;2023-03-03T09:08:45;51291.75;;;-145.83;100.00
7730;BME280;3908;52.310;7.230;2023-03-03T09:11:34;51305.47;;;-145.83;100.00
7730;BME280;3908;52.310;7.230;2023-03-03T09:14:21;51280.03;;;-145.83;100.00
7730;BME280;3908;52.310;7.230;2023-03-03T09:17:21;51305.47;;;-145.83;100.00
7730;BME280;3908;52.310;7.230;2023-03-03T09:20:31;51272.22;;;-145.83;100.00
7730;BME280;3908;52.310;7.230;2023-03-03T09:23:32;51295.69;;;-145.83;100.00
7730;BME280;3908;52.310;7.230;2023-03-03T09:26:28;51285.91;;;-145.83;100.00
7730;BME280;3908;52.310;7.230;2023-03-03T09:29:23;51317.19;;;-145.83;100.00
7730;BME280;3908;52.310;7.230;2023-03-03T09:32:23;51274.16;;;-145.83;100.00
7730;BME280;3908;52.310;7.230;2023-03-03T09:35:33;51321.09;;;-145.83;100.00
7730;BME280;3908;52.310;7.230;2023-03-03T09:38:28;51287.84;;;-145.83;100.00
7730;BME280;3908;52.310;7.230;2023-03-03T09:41:28;51280.03;;;-145.83;100.00
7730;BME280;3908;52.310;7.230;2023-03-03T09:44:43;51315.25;;;-145.83;100.00
7730;BME280;3908;52.310;7.230;2023-03-03T09:48:01;51272.22;;;-145.83;100.00
7730;BME280;3908;52.310;7.230;2023-03-03T09:51:11;51283.94;;;-145.83;100.00
7730;BME280;3908;52.310;7.230;2023-03-03T09:54:10;51325.03;;;-145.83;100.00
7730;BME280;3908;52.310;7.230;2023-03-03T09:57:04;51301.53;;;-145.83;100.00
7730;BME280;3908;52.310;7.230;2023-03-03T10:00:11;51334.81;;;-145.83;100.00
7730;BME280;3908;52.310;7.230;2023-03-03T10:06:34;51309.38;;;-145.83;100.00
7730;BME280;3908;52.310;7.230;2023-03-03T10:09:43;51307.41;;;-145.83;100.00
7730;BME280;3908;52.310;7.230;2023-03-03T10:12:38;51311.31;;;-145.83;100.00
7730;BME280;3908;52.310;7.230;2023-03-03T10:15:36;51336.75;;;-145.83;100.00
7730;BME280;3908;52.310;7.230;2023-03-03T10:18:29;51338.72;;;-145.83;100.00
7730;BME280;3908;52.310;7.230;2023-03-03T10:21:23;51309.38;;;-145.83;100.00
7730;BME280;3908;52.310;7.230;2023-03-03T10:24:19;51328.94;;;-145.83;100.00
7730;BME280;3908;52.310;7.230;2023-03-03T10:27:26;51311.31;;;-145.83;100.00
7730;BME280;3908;52.310;7.230;2023-03-03T10:30:27;51371.97;;;-145.83;100.00
7730;BME280;3908;52.310;7.230;2023-03-03T10:33:23;51338.72;;;-145.83;100.00
7730;BME280;3908;52.310;7.230;2023-03-03T10:36:22;51301.53;;;-145.83;100.00
7730;BME280;3908;52.310;7.230;2023-03-03T10:39:41;51328.94;;;-145.83;100.00
7730;BME280;3908;52.310;7.230;2023-03-03T10:42:52;51328.94;;;-145.83;100.00
7730;BME280;3908;52.310;7.230;2023-03-03T10:46:07;51332.84;;;-145.83;100.00
7730;BME280;3908;52.310;7.230;2023-03-03T10:49:10;51344.59;;;-145.83;100.00
7730;BME280;3908;52.310;7.230;2023-03-03T10:52:15;51346.53;;;-145.83;100.00
7730;BME280;3908;52.310;7.230;2023-03-03T10:55:14;51342.63;;;-145.83;100.00
7730;BME280;3908;52.310;7.230;2023-03-03T10:58:15;51356.31;;;-145.83;100.00
7730;BME280;3908;52.310;7.230;2023-03-03T11:01:13;51326.97;;;-145.83;100.00
7730;BME280;3908;52.310;7.230;2023-03-03T11:04:18;51344.59;;;-145.83;100.00
7730;BME280;3908;52.310;7.230;2023-03-03T11:07:11;51371.97;;;-145.83;100.00
7730;BME280;3908;52.310;7.230;2023-03-03T11:10:07;51366.09;;;-145.83;100.00
7730;BME280;3908;52.310;7.230;2023-03-03T11:13:07;51371.97;;;-145.83;98.07
7730;BME280;3908;52.310;7.230;2023-03-03T11:16:16;51375.88;;;-145.83;95.37
7730;BME280;3908;52.310;7.230;2023-03-03T11:19:18;51356.31;;;-145.83;93.85
7730;BME280;3908;52.310;7.230;2023-03-03T11:22:22;51342.63;;;-145.83;93.92
7730;BME280;3908;52.310;7.230;2023-03-03T11:25:23;51336.75;;;-145.83;94.98
7730;BME280;3908;52.310;7.230;2023-03-03T11:28:30;51379.81;;;-145.83;94.70
7730;BME280;3908;52.310;7.230;2023-03-03T11:31:27;51366.09;;;-145.83;92.54
7730;BME280;3908;52.310;7.230;2023-03-03T11:34:35;51375.88;;;-145.83;91.87
7730;BME280;3908;52.310;7.230;2023-03-03T11:37:31;51334.81;;;-145.83;90.88
7730;BME280;3908;52.310;7.230;2023-03-03T11:40:25;51370.03;;;-145.83;89.54
7730;BME280;3908;52.310;7.230;2023-03-03T11:43:16;51399.38;;;-145.83;86.32
7730;BME280;3908;52.310;7.230;2023-03-03T11:46:08;51362.19;;;-145.83;85.70
7730;BME280;3908;52.310;7.230;2023-03-03T11:48:59;51348.50;;;-145.83;86.91
7730;BME280;3908;52.310;7.230;2023-03-03T11:51:56;51381.75;;;-145.83;86.34
7730;BME280;3908;52.310;7.230;2023-03-03T11:54:49;51370.03;;;-145.83;84.79
7730;BME280;3908;52.310;7.230;2023-03-03T11:57:40;51383.72;;;-145.83;67.90
7730;BME280;3908;52.310;7.230;2023-03-03T12:00:36;51379.81;;;-145.83;65.82
7730;BME280;3908;52.310;7.230;2023-03-03T12:03:33;51354.38;;;-145.83;68.85
7730;BME280;3908;52.310;7.230;2023-03-03T12:06:32;51395.44;;;-145.83;67.47
7730;BME280;3908;52.310;7.230;2023-03-03T12:09:33;51368.06;;;-145.83;67.86
7730;BME280;3908;52.310;7.230;2023-03-03T12:12:32;51391.53;;;-145.83;64.53
7730;BME280;3908;52.310;7.230;2023-03-03T12:15:27;51389.59;;;-145.83;65.30
7730;BME280;3908;52.310;7.230;2023-03-03T12:18:36;51352.41;;;-145.83;67.10
7730;BME280;3908;52.310;7.230;2023-03-03T12:21:37;51354.38;;;-145.83;66.70
7730;BME280;3908;52.310;7.230;2023-03-03T12:24:44;51375.88;;;-145.83;64.72
7730;BME280;3908;52.310;7.230;2023-03-03T12:27:40;51348.50;;;-145.83;62.92
7730;BME280;3908;52.310;7.230;2023-03-03T12:33:50;51368.06;;;-145.83;66.52
7730;BME280;3908;52.310;7.230;2023-03-03T12:36:55;51401.31;;;-145.83;64.72
7730;BME280;3908;52.310;7.230;2023-03-03T12:39:54;51377.84;;;-145.83;65.53
7730;BME280;3908;52.310;7.230;2023-03-03T12:43:00;51401.31;;;-145.83;65.00
7730;BME280;3908;52.310;7.230;2023-03-03T12:45:59;51407.19;;;-145.83;63.87
7730;BME280;3908;52.310;7.230;2023-03-03T12:48:49;51450.22;;;-145.83;63.15
7730;BME280;3908;52.310;7.230;2023-03-03T12:51:45;51377.84;;;-145.83;62.44
7730;BME280;3908;52.310;7.230;2023-03-03T12:54:43;51377.84;;;-145.83;65.78
7730;BME280;3908;52.310;7.230;2023-03-03T12:57:41;51395.44;;;-145.83;65.62
7730;BME280;3908;52.310;7.230;2023-03-03T13:00:40;51420.88;;;-145.83;64.22
7730;BME280;3908;52.310;7.230;2023-03-03T13:03:37;51401.31;;;-145.83;62.60
7730;BME280;3908;52.310;7.230;2023-03-03T13:06:28;51424.78;;;-145.83;62.40
7730;BME280;3908;52.310;7.230;2023-03-03T13:09:27;51446.31;;;-145.83;62.68
7730;BME280;3908;52.310;7.230;2023-03-03T13:12:29;51452.19;;;-145.83;60.91
7730;BME280;3908;52.310;7.230;2023-03-03T13:15:22;51407.19;;;-145.83;60.90
7730;BME280;3908;52.310;7.230;2023-03-03T13:18:24;51415.00;;;-145.83;59.97
7730;BME280;3908;52.310;7.230;2023-03-03T13:21:16;51397.41;;;-145.83;60.01
7730;BME280;3908;52.310;7.230;2023-03-03T13:24:15;51389.59;;;-145.83;59.75
7730;BME280;3908;52.310;7.230;2023-03-03T13:27:07;51416.97;;;-145.83;57.95
7730;BME280;3908;52.310;7.230;2023-03-03T13:29:59;51403.28;;;-145.83;58.35
7730;BME280;3908;52.310;7.230;2023-03-03T13:32:52;51387.63;;;-145.83;60.48
7730;BME280;3908;52.310;7.230;2023-03-03T13:35:44;51403.28;;;-145.83;59.44
7730;BME280;3908;52.310;7.230;2023-03-03T13:38:34;51358.28;;;-145.83;59.33
7730;BME280;3908;52.310;7.230;2023-03-03T13:41:24;51389.59;;;-145.83;60.50
7730;BME280;3908;52.310;7.230;2023-03-03T13:44:20;51395.44;;;-145.83;61.12
7730;BME280;3908;52.310;7.230;2023-03-03T13:47:16;51370.03;;;-145.83;61.09
7730;BME280;3908;52.310;7.230;2023-03-03T13:50:19;51360.22;;;-145.83;61.69
7730;BME280;3908;52.310;7.230;2023-03-03T13:53:33;51371.97;;;-145.83;63.68
7730;BME280;3908;52.310;7.230;2023-03-03T13:56:34;51323.06;;;-145.83;61.07
7730;BME280;3908;52.310;7.230;2023-03-03T13:59:32;51381.75;;;-145.83;61.55
7730;BME280;3908;52.310;7.230;2023-03-03T14:02:39;51418.94;;;-145.83;61.80
7730;BME280;3908;52.310;7.230;2023-03-03T14:05:35;51366.09;;;-145.83;61.26
7730;BME280;3908;52.310;7.230;2023-03-03T14:08:35;51373.94;;;-145.83;62.33
7730;BME280;3908;52.310;7.230;2023-03-03T14:11:34;51370.03;;;-145.83;62.63
7730;BME280;3908;52.310;7.230;2023-03-03T14:14:35;51383.72;;;-145.83;63.35
7730;BME280;3908;52.310;7.230;2023-03-03T14:17:31;51342.63;;;-145.83;63.92
7730;BME280;3908;52.310;7.230;2023-03-03T14:20:23;51383.72;;;-145.83;63.86
7730;BME280;3908;52.310;7.230;2023-03-03T14:23:16;51338.72;;;-145.83;64.78
7730;BME280;3908;52.310;7.230;2023-03-03T14:26:07;51371.97;;;-145.83;65.08
7730;BME280;3908;52.310;7.230;2023-03-03T14:29:10;51411.09;;;-145.83;65.32
7730;BME280;3908;52.310;7.230;2023-03-03T14:32:01;51348.50;;;-145.83;65.95
7730;BME280;3908;52.310;7.230;2023-03-03T14:34:56;51358.28;;;-145.83;65.72
7730;BME280;3908;52.310;7.230;2023-03-03T14:37:44;51340.69;;;-145.83;65.25
7730;BME280;3908;52.310;7.230;2023-03-03T14:40:34;51354.38;;;-145.83;64.76
7730;BME280;3908;52.310;7.230;2023-03-03T14:43:24;51344.59;;;-145.83;64.40
7730;BME280;3908;52.310;7.230;2023-03-03T14:46:30;51319.16;;;-145.83;64.38
7730;BME280;3908;52.310;7.230;2023-03-03T14:49:29;51340.69;;;-145.83;64.55
7730;BME280;3908;52.310;7.230;2023-03-03T14:52:23;51336.75;;;-145.83;65.00
7730;BME280;3908;52.310;7.230;2023-03-03T14:55:29;51332.84;;;-145.83;65.22
7730;BME280;3908;52.310;7.230;2023-03-03T14:58:31;51352.41;;;-145.83;66.04
7730;BME280;3908;52.310;7.230;2023-03-03T15:01:29;51342.63;;;-145.83;65.74
7730;BME280;3908;52.310;7.230;2023-03-03T15:04:25;51366.09;;;-145.83;66.79
7730;BME280;3908;52.310;7.230;2023-03-03T15:07:31;51328.94;;;-145.83;66.45
7730;BME280;3908;52.310;7.230;2023-03-03T15:10:31;51325.03;;;-145.83;66.47
7730;BME280;3908;52.310;7.230;2023-03-03T15:13:34;51370.03;;;-145.83;66.07
7730;BME280;3908;52.310;7.230;2023-03-03T15:16:23;51362.19;;;-145.83;66.03
7730;BME280;3908;52.310;7.230;2023-03-03T15:19:25;51385.66;;;-145.83;66.75